sensor_id;sensor_type;location;lat;lon;timestamp;pressure;altitude;pressure_sealevel;temperature;humidity
47366;BME280;33105;47.964;7.982;2024-01-27T00:00:03;98412.59;;;3.73;100.00
47366;BME280;33105;47.964;7.982;2024-01-27T00:03:15;98415.84;;;3.69;100.00
47366;BME280;33105;47.964;7.982;2024-01-27T00:07:02;98420.47;;;3.52;100.00
47366;BME280;33105;47.964;7.982;2024-01-27T00:15:01;98429.56;;;3.59;100.00
47366;BME280;33105;47.964;7.982;2024-01-27T00:18:05;98425.66;;;3.62;100.00
47366;BME280;33105;47.964;7.982;2024-01-27T00:21:07;98421.81;;;3.56;100.00
47366;BME280;33105;47.964;7.982;2024-01-27T00:24:08;98421.81;;;3.56;100.00
47366;BME280;33105;47.964;7.982;2024-01-27T00:27:10;98423.00;;;3.54;100.00
47366;BME280;33105;47.964;7.982;2024-01-27T00:30:24;98418.28;;;3.48;100.00
47366;BME280;33105;47.964;7.982;2024-01-27T00:34:20;98417.00;;;3.44;100.00
47366;BME280;33105;47.964;7.982;2024-01-27T00:37:21;98432.47;;;3.50;100.00
47366;BME280;33105;47.964;7.982;2024-01-27T00:40:23;98426.41;;;3.48;100.00
47366;BME280;33105;47.964;7.982;2024-01-27T01:02:26;98418.59;;;3.22;100.00
47366;BME280;33105;47.964;7.982;2024-01-27T01:11:47;98420.22;;;3.39;100.00
47366;BME280;33105;47.964;7.982;2024-01-27T01:16:20;98417.53;;;3.31;100.00
47366;BME280;33105;47.964;7.982;2024-01-27T01:20:38;98434.56;;;3.39;100.00
47366;BME280;33105;47.964;7.982;2024-01-27T01:52:39;98458.28;;;3.13;100.00
47366;BME280;33105;47.964;7.982;2024-01-27T01:56:42;98461.50;;;3.17;100.00
47366;BME280;33105;47.964;7.982;2024-01-27T02:05:31;98464.94;;;2.94;100.00
47366;BME280;33105;47.964;7.982;2024-01-27T02:14:41;98466.63;;;2.95;100.00
47366;BME280;33105;47.964;7.982;2024-01-27T02:22:24;98478.78;;;2.51;100.00
47366;BME280;33105;47.964;7.982;2024-01-27T02:25:55;98484.69;;;2.54;100.00
47366;BME280;33105;47.964;7.982;2024-01-27T02:28:57;98479.31;;;2.46;100.00
47366;BME280;33105;47.964;7.982;2024-01-27T02:32:00;98478.28;;;2.31;100.00
47366;BME280;33105;47.964;7.982;2024-01-27T02:35:02;98476.25;;;2.25;100.00
47366;BME280;33105;47.964;7.982;2024-01-27T02:38:03;98476.75;;;2.28;100.00
47366;BME280;33105;47.964;7.982;2024-01-27T02:41:09;98475.06;;;2.27;100.00
47366;BME280;33105;47.964;7.982;2024-01-27T02:44:12;98480.66;;;2.18;100.00
47366;BME280;33105;47.964;7.982;2024-01-27T02:47:13;98480.31;;;2.13;100.00
47366;BME280;33105;47.964;7.982;2024-01-27T02:50:14;98469.84;;;2.10;100.00
47366;BME280;33105;47.964;7.982;2024-01-27T02:53:16;98473.03;;;2.05;100.00
47366;BME280;33105;47.964;7.982;2024-01-27T02:56:17;98473.38;;;2.02;100.00
47366;BME280;33105;47.964;7.982;2024-01-27T02:59:18;98473.88;;;1.89;100.00
47366;BME280;33105;47.964;7.982;2024-01-27T03:02:19;98475.16;;;1.69;100.00
47366;BME280;33105;47.964;7.982;2024-01-27T03:05:20;98478.03;;;1.76;100.00
47366;BME280;33105;47.964;7.982;2024-01-27T03:08:21;98479.84;;;1.59;100.00
47366;BME280;33105;47.964;7.982;2024-01-27T03:11:23;98489.75;;;1.58;100.00
47366;BME280;33105;47.964;7.982;2024-01-27T03:14:24;98486.38;;;1.48;100.00
47366;BME280;33105;47.964;7.982;2024-01-27T03:17:26;98499.47;;;1.43;100.00
47366;BME280;33105;47.964;7.982;2024-01-27T03:20:27;98499.13;;;1.38;100.00
47366;BME280;33105;47.964;7.982;2024-01-27T03:23:28;98501.13;;;1.36;100.00
47366;BME280;33105;47.964;7.982;2024-01-27T03:26:30;98501.06;;;1.28;100.00
47366;BME280;33105;47.964;7.982;2024-01-27T03:29:31;98500.44;;;1.34;100.00
47366;BME280;33105;47.964;7.982;2024-01-27T03:32:32;98511.16;;;1.26;100.00
47366;BME280;33105;47.964;7.982;2024-01-27T03:35:33;98510.19;;;1.35;100.00
47366;BME280;33105;47.964;7.982;2024-01-27T03:38:34;98508.81;;;1.23;100.00
47366;BME280;33105;47.964;7.982;2024-01-27T03:41:37;98515.03;;;1.23;100.00
47366;BME280;33105;47.964;7.982;2024-01-27T03:44:39;98512.06;;;1.34;100.00
47366;BME280;33105;47.964;7.982;2024-01-27T03:47:40;98510.09;;;1.45;100.00
47366;BME280;33105;47.964;7.982;2024-01-27T03:50:41;98510.63;;;1.56;100.00
47366;BME280;33105;47.964;7.982;2024-01-27T03:53:42;98502.50;;;1.40;100.00
47366;BME280;33105;47.964;7.982;2024-01-27T03:56:44;98508.41;;;1.44;100.00
47366;BME280;33105;47.964;7.982;2024-01-27T03:59:45;98514.63;;;1.44;100.00
47366;BME280;33105;47.964;7.982;2024-01-27T04:02:46;98517.75;;;1.31;100.00
47366;BME280;33105;47.964;7.982;2024-01-27T04:05:51;98517.22;;;1.28;100.00
47366;BME280;33105;47.964;7.982;2024-01-27T04:08:52;98518.53;;;1.16;100.00
47366;BME280;33105;47.964;7.982;2024-01-27T04:11:54;98521.47;;;1.05;100.00
47366;BME280;33105;47.964;7.982;2024-01-27T04:14:57;98525.66;;;0.99;100.00
47366;BME280;33105;47.964;7.982;2024-01-27T04:17:58;98528.75;;;1.12;100.00
47366;BME280;33105;47.964;7.982;2024-01-27T04:21:00;98531.38;;;1.04;100.00
47366;BME280;33105;47.964;7.982;2024-01-27T04:24:02;98530.00;;;1.00;100.00
47366;BME280;33105;47.964;7.982;2024-01-27T04:27:03;98534.97;;;0.87;100.00
47366;BME280;33105;47.964;7.982;2024-01-27T04:30:08;98528.00;;;1.02;100.00
47366;BME280;33105;47.964;7.982;2024-01-27T04:33:12;98533.75;;;0.99;100.00
47366;BME280;33105;47.964;7.982;2024-01-27T04:36:13;98531.28;;;0.88;100.00
47366;BME280;33105;47.964;7.982;2024-01-27T04:39:14;98534.69;;;1.24;100.00
47366;BME280;33105;47.964;7.982;2024-01-27T04:42:16;98522.44;;;0.95;100.00
47366;BME280;33105;47.964;7.982;2024-01-27T04:45:17;98531.66;;;0.93;100.00
47366;BME280;33105;47.964;7.982;2024-01-27T04:48:18;98530.38;;;1.05;100.00
47366;BME280;33105;47.964;7.982;2024-01-27T04:51:20;98531.19;;;0.97;100.00
47366;BME280;33105;47.964;7.982;2024-01-27T04:54:21;98527.06;;;0.85;100.00
47366;BME280;33105;47.964;7.982;2024-01-27T04:57:22;98532.38;;;0.77;100.00
47366;BME280;33105;47.964;7.982;2024-01-27T05:00:24;98529.59;;;0.87;100.00
47366;BME280;33105;47.964;7.982;2024-01-27T05:03:27;98538.09;;;0.56;100.00
47366;BME280;33105;47.964;7.982;2024-01-27T05:06:28;98537.09;;;0.57;100.00
47366;BME280;33105;47.964;7.982;2024-01-27T05:09:30;98543.03;;;0.43;100.00
47366;BME280;33105;47.964;7.982;2024-01-27T05:12:31;98543.03;;;0.43;100.00
47366;BME280;33105;47.964;7.982;2024-01-27T05:15:32;98538.44;;;0.36;100.00
47366;BME280;33105;47.964;7.982;2024-01-27T05:18:33;98534.97;;;0.25;100.00
47366;BME280;33105;47.964;7.982;2024-01-27T05:21:34;98531.06;;;0.20;100.00
47366;BME280;33105;47.964;7.982;2024-01-27T05:24:36;98532.91;;;0.19;100.00
47366;BME280;33105;47.964;7.982;2024-01-27T05:27:39;98529.59;;;0.25;100.00
47366;BME280;33105;47.964;7.982;2024-01-27T05:30:41;98533.06;;;0.18;100.00
47366;BME280;33105;47.964;7.982;2024-01-27T05:33:43;98532.66;;;0.13;100.00
47366;BME280;33105;47.964;7.982;2024-01-27T05:36:44;98535.66;;;0.10;100.00
47366;BME280;33105;47.964;7.982;2024-01-27T05:39:46;98539.94;;;0.03;100.00
47366;BME280;33105;47.964;7.982;2024-01-27T05:42:47;98551.53;;;0.03;100.00
47366;BME280;33105;47.964;7.982;2024-01-27T05:45:50;98552.09;;;0.07;100.00
47366;BME280;33105;47.964;7.982;2024-01-27T05:48:51;98554.38;;;0.02;100.00
47366;BME280;33105;47.964;7.982;2024-01-27T05:51:54;98567.16;;;-0.01;100.00
47366;BME280;33105;47.964;7.982;2024-01-27T05:54:55;98566.81;;;0.03;100.00
47366;BME280;33105;47.964;7.982;2024-01-27T05:57:57;98557.84;;;0.12;100.00
47366;BME280;33105;47.964;7.982;2024-01-27T06:00:58;98568.22;;;0.07;100.00
47366;BME280;33105;47.964;7.982;2024-01-27T06:03:59;98564.53;;;0.08;100.00
47366;BME280;33105;47.964;7.982;2024-01-27T06:07:00;98554.47;;;0.10;100.00
47366;BME280;33105;47.964;7.982;2024-01-27T06:10:02;98557.91;;;0.02;100.00
47366;BME280;33105;47.964;7.982;2024-01-27T06:13:03;98546.25;;;-0.07;100.00
47366;BME280;33105;47.964;7.982;2024-01-27T06:16:08;98544.16;;;-0.13;100.00
47366;BME280;33105;47.964;7.982;2024-01-27T06:19:10;98546.66;;;-0.29;100.00
47366;BME280;33105;47.964;7.982;2024-01-27T06:22:11;98559.84;;;-0.36;100.00
47366;BME280;33105;47.964;7.982;2024-01-27T06:25:14;98560.47;;;-0.24;100.00
47366;BME280;33105;47.964;7.982;2024-01-27T06:28:15;98564.09;;;-0.15;100.00
47366;BME280;33105;47.964;7.982;2024-01-27T06:31:16;98560.97;;;-0.11;100.00
47366;BME280;33105;47.964;7.982;2024-01-27T06:34:17;98567.78;;;-0.16;100.00
47366;BME280;33105;47.964;7.982;2024-01-27T06:37:19;98572.16;;;-0.15;100.00
47366;BME280;33105;47.964;7.982;2024-01-27T06:40:20;98572.00;;;-0.14;100.00
47366;BME280;33105;47.964;7.982;2024-01-27T06:43:21;98560.28;;;-0.13;100.00
47366;BME280;33105;47.964;7.982;2024-01-27T06:46:22;98561.38;;;-0.06;100.00
47366;BME280;33105;47.964;7.982;2024-01-27T06:49:23;98555.22;;;0.02;100.00
47366;BME280;33105;47.964;7.982;2024-01-27T06:52:25;98548.94;;;-0.07;100.00
47366;BME280;33105;47.964;7.982;2024-01-27T06:55:26;98547.31;;;0.00;100.00
47366;BME280;33105;47.964;7.982;2024-01-27T06:58:28;98545.72;;;0.08;100.00
47366;BME280;33105;47.964;7.982;2024-01-27T07:01:29;98546.34;;;0.19;100.00
47366;BME280;33105;47.964;7.982;2024-01-27T07:04:30;98552.78;;;0.09;100.00
47366;BME280;33105;47.964;7.982;2024-01-27T07:07:31;98552.28;;;0.23;100.00
47366;BME280;33105;47.964;7.982;2024-01-27T07:10:33;98544.16;;;0.05;100.00
47366;BME280;33105;47.964;7.982;2024-01-27T07:13:34;98533.13;;;-0.10;100.00
47366;BME280;33105;47.964;7.982;2024-01-27T07:16:35;98536.28;;;-0.24;100.00
47366;BME280;33105;47.964;7.982;2024-01-27T07:19:36;98544.16;;;-0.13;100.00
47366;BME280;33105;47.964;7.982;2024-01-27T07:22:38;98547.16;;;-0.16;100.00
47366;BME280;33105;47.964;7.982;2024-01-27T07:25:39;98550.78;;;-0.07;100.00
47366;BME280;33105;47.964;7.982;2024-01-27T07:28:40;98555.38;;;0.00;100.00
47366;BME280;33105;47.964;7.982;2024-01-27T07:31:41;98555.06;;;0.04;100.00
47366;BME280;33105;47.964;7.982;2024-01-27T07:34:43;98553.78;;;0.08;100.00
47366;BME280;33105;47.964;7.982;2024-01-27T07:37:44;98568.44;;;-0.05;100.00
47366;BME280;33105;47.964;7.982;2024-01-27T07:40:46;98573.03;;;0.03;100.00
47366;BME280;33105;47.964;7.982;2024-01-27T07:43:47;98583.34;;;0.08;100.00
47366;BME280;33105;47.964;7.982;2024-01-27T07:46:49;98575.41;;;-0.12;100.00
47366;BME280;33105;47.964;7.982;2024-01-27T07:49:50;98561.16;;;-0.22;100.00
47366;BME280;33105;47.964;7.982;2024-01-27T07:52:51;98565.94;;;-0.16;100.00
47366;BME280;33105;47.964;7.982;2024-01-27T07:55:52;98564.81;;;0.05;100.00
47366;BME280;33105;47.964;7.982;2024-01-27T07:58:55;98555.69;;;-0.03;100.00
47366;BME280;33105;47.964;7.982;2024-01-27T08:01:56;98548.69;;;-0.13;100.00
47366;BME280;33105;47.964;7.982;2024-01-27T08:04:57;98548.88;;;-0.24;100.00
47366;BME280;33105;47.964;7.982;2024-01-27T08:07:59;98532.13;;;-0.09;100.00
47366;BME280;33105;47.964;7.982;2024-01-27T08:11:00;98544.34;;;-0.24;100.00
47366;BME280;33105;47.964;7.982;2024-01-27T08:14:02;98543.97;;;-0.29;100.00
47366;BME280;33105;47.964;7.982;2024-01-27T08:17:03;98545.75;;;-0.20;100.00
47366;BME280;33105;47.964;7.982;2024-01-27T08:20:05;98553.03;;;-0.30;100.00
47366;BME280;33105;47.964;7.982;2024-01-27T08:23:07;98552.22;;;-0.40;100.00
47366;BME280;33105;47.964;7.982;2024-01-27T08:26:09;98559.28;;;-0.39;100.00
47366;BME280;33105;47.964;7.982;2024-01-27T08:29:10;98564.91;;;-0.32;100.00
47366;BME280;33105;47.964;7.982;2024-01-27T08:32:11;98566.13;;;0.00;100.00
47366;BME280;33105;47.964;7.982;2024-01-27T08:35:13;98560.78;;;0.36;100.00
47366;BME280;33105;47.964;7.982;2024-01-27T08:38:14;98555.00;;;0.31;100.00
47366;BME280;33105;47.964;7.982;2024-01-27T08:41:16;98563.19;;;0.21;100.00
47366;BME280;33105;47.964;7.982;2024-01-27T08:44:17;98552.84;;;0.52;100.00
47366;BME280;33105;47.964;7.982;2024-01-27T08:47:18;98563.53;;;0.26;100.00
47366;BME280;33105;47.964;7.982;2024-01-27T08:50:21;98558.56;;;0.31;100.00
47366;BME280;33105;47.964;7.982;2024-01-27T08:53:23;98547.66;;;0.33;100.00
47366;BME280;33105;47.964;7.982;2024-01-27T08:56:24;98552.31;;;0.31;100.00
47366;BME280;33105;47.964;7.982;2024-01-27T08:59:25;98553.03;;;0.33;100.00
47366;BME280;33105;47.964;7.982;2024-01-27T09:02:26;98553.88;;;0.33;100.00
47366;BME280;33105;47.964;7.982;2024-01-27T09:05:28;98549.88;;;0.38;100.00
47366;BME280;33105;47.964;7.982;2024-01-27T09:08:29;98555.25;;;0.38;100.00
47366;BME280;33105;47.964;7.982;2024-01-27T09:11:30;98556.88;;;0.48;100.00
47366;BME280;33105;47.964;7.982;2024-01-27T09:14:33;98560.31;;;0.58;100.00
47366;BME280;33105;47.964;7.982;2024-01-27T09:17:36;98563.03;;;0.84;100.00
47366;BME280;33105;47.964;7.982;2024-01-27T09:20:37;98549.53;;;1.02;100.00
47366;BME280;33105;47.964;7.982;2024-01-27T09:23:38;98542.28;;;0.94;100.00
47366;BME280;33105;47.964;7.982;2024-01-27T09:26:40;98542.16;;;1.04;100.00
47366;BME280;33105;47.964;7.982;2024-01-27T09:29:41;98535.09;;;1.03;100.00
47366;BME280;33105;47.964;7.982;2024-01-27T09:32:42;98530.91;;;1.09;100.00
47366;BME280;33105;47.964;7.982;2024-01-27T09:35:47;98524.44;;;1.19;100.00
47366;BME280;33105;47.964;7.982;2024-01-27T09:38:48;98528.16;;;1.26;100.00
47366;BME280;33105;47.964;7.982;2024-01-27T09:41:51;98524.09;;;1.48;100.00
47366;BME280;33105;47.964;7.982;2024-01-27T09:44:53;98523.63;;;1.61;100.00
47366;BME280;33105;47.964;7.982;2024-01-27T09:47:57;98521.50;;;1.73;100.00
47366;BME280;33105;47.964;7.982;2024-01-27T09:51:01;98523.28;;;1.64;100.00
47366;BME280;33105;47.964;7.982;2024-01-27T09:54:05;98516.09;;;1.73;100.00
47366;BME280;33105;47.964;7.982;2024-01-27T09:57:08;98516.25;;;1.79;100.00
47366;BME280;33105;47.964;7.982;2024-01-27T10:00:11;98519.88;;;2.04;100.00
47366;BME280;33105;47.964;7.982;2024-01-27T10:03:13;98515.47;;;2.03;100.00
47366;BME280;33105;47.964;7.982;2024-01-27T10:06:14;98506.75;;;2.25;100.00
47366;BME280;33105;47.964;7.982;2024-01-27T10:09:18;98504.94;;;2.42;100.00
47366;BME280;33105;47.964;7.982;2024-01-27T10:12:20;98509.31;;;2.43;100.00
47366;BME280;33105;47.964;7.982;2024-01-27T10:15:23;98494.78;;;2.28;100.00
47366;BME280;33105;47.964;7.982;2024-01-27T10:18:24;98496.50;;;2.37;100.00
47366;BME280;33105;47.964;7.982;2024-01-27T10:21:26;98493.31;;;2.42;100.00
47366;BME280;33105;47.964;7.982;2024-01-27T10:24:31;98485.03;;;2.59;100.00
47366;BME280;33105;47.964;7.982;2024-01-27T10:27:34;98489.44;;;2.68;100.00
47366;BME280;33105;47.964;7.982;2024-01-27T10:30:36;98478.25;;;2.88;100.00
47366;BME280;33105;47.964;7.982;2024-01-27T10:33:57;98476.91;;;2.92;100.00
47366;BME280;33105;47.964;7.982;2024-01-27T10:36:58;98480.06;;;3.03;100.00
47366;BME280;33105;47.964;7.982;2024-01-27T10:40:18;98478.19;;;3.20;100.00
47366;BME280;33105;47.964;7.982;2024-01-27T10:52:52;98466.09;;;3.86;100.00
47366;BME280;33105;47.964;7.982;2024-01-27T10:55:57;98463.63;;;3.99;100.00
47366;BME280;33105;47.964;7.982;2024-01-27T10:58:59;98462.50;;;4.39;100.00
47366;BME280;33105;47.964;7.982;2024-01-27T11:02:01;98451.56;;;4.70;100.00
47366;BME280;33105;47.964;7.982;2024-01-27T11:05:04;98445.66;;;4.52;100.00
47366;BME280;33105;47.964;7.982;2024-01-27T11:08:06;98451.00;;;4.60;100.00
47366;BME280;33105;47.964;7.982;2024-01-27T11:11:10;98447.47;;;4.37;100.00
47366;BME280;33105;47.964;7.982;2024-01-27T11:14:12;98446.44;;;4.75;100.00
47366;BME280;33105;47.964;7.982;2024-01-27T11:17:15;98442.22;;;4.58;100.00
47366;BME280;33105;47.964;7.982;2024-01-27T11:20:20;98440.75;;;4.33;100.00
47366;BME280;33105;47.964;7.982;2024-01-27T11:23:34;98434.34;;;4.26;100.00
47366;BME280;33105;47.964;7.982;2024-01-27T11:26:40;98428.84;;;4.19;100.00
47366;BME280;33105;47.964;7.982;2024-01-27T11:29:48;98428.34;;;4.38;100.00
47366;BME280;33105;47.964;7.982;2024-01-27T11:32:50;98426.56;;;4.83;100.00
47366;BME280;33105;47.964;7.982;2024-01-27T11:36:04;98419.72;;;4.58;100.00
47366;BME280;33105;47.964;7.982;2024-01-27T11:39:23;98417.84;;;4.58;100.00
47366;BME280;33105;47.964;7.982;2024-01-27T11:42:24;98419.69;;;4.43;100.00
47366;BME280;33105;47.964;7.982;2024-01-27T11:45:26;98404.91;;;4.31;100.00
47366;BME280;33105;47.964;7.982;2024-01-27T11:48:41;98400.34;;;4.31;100.00
47366;BME280;33105;47.964;7.982;2024-01-27T11:51:43;98415.69;;;4.54;100.00
47366;BME280;33105;47.964;7.982;2024-01-27T11:54:46;98413.03;;;4.31;100.00
47366;BME280;33105;47.964;7.982;2024-01-27T11:57:47;98415.69;;;4.54;100.00
47366;BME280;33105;47.964;7.982;2024-01-27T12:00:48;98409.72;;;4.43;100.00
47366;BME280;33105;47.964;7.982;2024-01-27T12:03:50;98406.66;;;4.61;100.00
47366;BME280;33105;47.964;7.982;2024-01-27T12:06:51;98407.50;;;4.76;100.00
47366;BME280;33105;47.964;7.982;2024-01-27T12:09:52;98404.97;;;4.60;100.00
47366;BME280;33105;47.964;7.982;2024-01-27T12:12:53;98398.94;;;5.02;100.00
47366;BME280;33105;47.964;7.982;2024-01-27T12:15:54;98400.03;;;4.64;100.00
47366;BME280;33105;47.964;7.982;2024-01-27T12:18:56;98386.03;;;4.75;100.00
47366;BME280;33105;47.964;7.982;2024-01-27T12:21:57;98393.69;;;4.71;100.00
47366;BME280;33105;47.964;7.982;2024-01-27T12:25:10;98391.94;;;4.78;100.00
47366;BME280;33105;47.964;7.982;2024-01-27T12:28:11;98387.38;;;5.08;100.00
47366;BME280;33105;47.964;7.982;2024-01-27T12:31:13;98390.72;;;5.25;100.00
47366;BME280;33105;47.964;7.982;2024-01-27T12:34:18;98374.16;;;5.35;100.00
47366;BME280;33105;47.964;7.982;2024-01-27T12:37:21;98370.38;;;5.51;100.00
47366;BME280;33105;47.964;7.982;2024-01-27T12:40:23;98377.84;;;5.12;100.00
47366;BME280;33105;47.964;7.982;2024-01-27T12:43:24;98374.63;;;5.38;100.00
47366;BME280;33105;47.964;7.982;2024-01-27T12:46:26;98378.47;;;5.29;100.00
47366;BME280;33105;47.964;7.982;2024-01-27T12:49:29;98373.97;;;5.36;100.00
47366;BME280;33105;47.964;7.982;2024-01-27T12:52:30;98370.06;;;5.39;100.00
47366;BME280;33105;47.964;7.982;2024-01-27T12:55:32;98367.09;;;5.19;100.00
47366;BME280;33105;47.964;7.982;2024-01-27T12:58:33;98362.88;;;5.02;100.00
47366;BME280;33105;47.964;7.982;2024-01-27T13:01:34;98356.44;;;5.03;100.00
47366;BME280;33105;47.964;7.982;2024-01-27T13:04:36;98357.91;;;5.20;100.00
47366;BME280;33105;47.964;7.982;2024-01-27T13:07:37;98343.59;;;5.41;100.00
47366;BME280;33105;47.964;7.982;2024-01-27T13:10:39;98345.13;;;5.65;100.00
47366;BME280;33105;47.964;7.982;2024-01-27T13:13:40;98339.47;;;5.45;100.00
47366;BME280;33105;47.964;7.982;2024-01-27T13:16:42;98338.94;;;5.35;100.00
47366;BME280;33105;47.964;7.982;2024-01-27T13:19:43;98331.56;;;5.43;100.00
47366;BME280;33105;47.964;7.982;2024-01-27T13:22:44;98335.72;;;5.46;100.00
47366;BME280;33105;47.964;7.982;2024-01-27T13:25:46;98325.22;;;5.58;100.00
47366;BME280;33105;47.964;7.982;2024-01-27T13:28:47;98325.16;;;5.51;100.00
47366;BME280;33105;47.964;7.982;2024-01-27T13:31:51;98320.38;;;5.53;100.00
47366;BME280;33105;47.964;7.982;2024-01-27T13:34:52;98319.47;;;5.46;100.00
47366;BME280;33105;47.964;7.982;2024-01-27T13:37:53;98315.03;;;5.60;100.00
47366;BME280;33105;47.964;7.982;2024-01-27T13:40:55;98315.03;;;5.60;100.00
47366;BME280;33105;47.964;7.982;2024-01-27T13:43:56;98308.56;;;5.39;100.00
47366;BME280;33105;47.964;7.982;2024-01-27T13:46:57;98302.56;;;5.44;100.00
47366;BME280;33105;47.964;7.982;2024-01-27T13:50:01;98305.72;;;5.47;100.00
47366;BME280;33105;47.964;7.982;2024-01-27T13:53:03;98304.03;;;5.46;100.00
47366;BME280;33105;47.964;7.982;2024-01-27T13:56:06;98296.03;;;5.38;100.00
47366;BME280;33105;47.964;7.982;2024-01-27T13:59:08;98291.84;;;5.36;100.00
47366;BME280;33105;47.964;7.982;2024-01-27T14:02:09;98292.88;;;5.35;100.00
47366;BME280;33105;47.964;7.982;2024-01-27T14:05:10;98297.06;;;5.37;100.00
47366;BME280;33105;47.964;7.982;2024-01-27T14:08:12;98304.63;;;5.42;100.00
47366;BME280;33105;47.964;7.982;2024-01-27T14:11:13;98292.31;;;5.39;100.00
47366;BME280;33105;47.964;7.982;2024-01-27T14:14:16;98296.38;;;5.50;100.00
47366;BME280;33105;47.964;7.982;2024-01-27T14:17:18;98292.53;;;5.44;100.00
47366;BME280;33105;47.964;7.982;2024-01-27T14:20:21;98295.53;;;5.50;100.00
47366;BME280;33105;47.964;7.982;2024-01-27T14:23:22;98303.19;;;5.46;100.00
47366;BME280;33105;47.964;7.982;2024-01-27T14:26:24;98306.94;;;5.45;100.00
47366;BME280;33105;47.964;7.982;2024-01-27T14:29:25;98304.38;;;5.37;100.00
47366;BME280;33105;47.964;7.982;2024-01-27T14:32:27;98306.41;;;5.35;100.00
47366;BME280;33105;47.964;7.982;2024-01-27T14:35:28;98310.16;;;5.34;100.00
47366;BME280;33105;47.964;7.982;2024-01-27T14:38:29;98318.59;;;5.24;100.00
47366;BME280;33105;47.964;7.982;2024-01-27T14:41:31;98325.97;;;5.30;100.00
47366;BME280;33105;47.964;7.982;2024-01-27T14:44:32;98323.78;;;5.40;100.00
47366;BME280;33105;47.964;7.982;2024-01-27T14:47:33;98317.06;;;5.36;100.00
47366;BME280;33105;47.964;7.982;2024-01-27T14:50:35;98326.97;;;5.44;100.00
47366;BME280;33105;47.964;7.982;2024-01-27T14:53:36;98331.19;;;5.32;100.00
47366;BME280;33105;47.964;7.982;2024-01-27T14:56:37;98336.94;;;5.07;100.00
47366;BME280;33105;47.964;7.982;2024-01-27T14:59:38;98340.56;;;5.00;100.00
47366;BME280;33105;47.964;7.982;2024-01-27T15:02:43;98340.66;;;5.06;100.00
47366;BME280;33105;47.964;7.982;2024-01-27T15:05:46;98341.88;;;5.04;100.00
47366;BME280;33105;47.964;7.982;2024-01-27T15:08:47;98342.72;;;5.04;100.00
47366;BME280;33105;47.964;7.982;2024-01-27T15:11:50;98344.25;;;4.92;100.00
47366;BME280;33105;47.964;7.982;2024-01-27T15:14:51;98339.00;;;4.91;100.00
47366;BME280;33105;47.964;7.982;2024-01-27T15:17:52;98348.91;;;4.84;100.00
47366;BME280;33105;47.964;7.982;2024-01-27T15:21:01;98345.06;;;4.93;100.00
47366;BME280;33105;47.964;7.982;2024-01-27T15:24:02;98351.78;;;4.82;100.00
47366;BME280;33105;47.964;7.982;2024-01-27T15:27:03;98348.44;;;4.65;100.00
47366;BME280;33105;47.964;7.982;2024-01-27T15:30:05;98350.25;;;4.50;100.00
47366;BME280;33105;47.964;7.982;2024-01-27T15:33:07;98351.75;;;4.38;100.00
47366;BME280;33105;47.964;7.982;2024-01-27T15:36:09;98359.94;;;4.30;100.00
47366;BME280;33105;47.964;7.982;2024-01-27T15:39:10;98354.22;;;4.25;100.00
47366;BME280;33105;47.964;7.982;2024-01-27T15:42:12;98351.69;;;4.23;100.00
47366;BME280;33105;47.964;7.982;2024-01-27T15:45:13;98356.00;;;4.18;100.00
47366;BME280;33105;47.964;7.982;2024-01-27T15:48:14;98350.19;;;4.21;100.00
47366;BME280;33105;47.964;7.982;2024-01-27T15:51:16;98348.53;;;4.20;100.00
47366;BME280;33105;47.964;7.982;2024-01-27T15:54:17;98341.88;;;4.07;100.00
47366;BME280;33105;47.964;7.982;2024-01-27T15:57:19;98344.81;;;3.98;100.00
47366;BME280;33105;47.964;7.982;2024-01-27T16:00:20;98350.31;;;3.90;100.00
47366;BME280;33105;47.964;7.982;2024-01-27T16:03:22;98362.56;;;3.78;100.00
47366;BME280;33105;47.964;7.982;2024-01-27T16:06:23;98357.41;;;3.68;100.00
47366;BME280;33105;47.964;7.982;2024-01-27T16:09:25;98359.34;;;3.51;100.00
47366;BME280;33105;47.964;7.982;2024-01-27T16:17:11;98360.94;;;3.46;100.00
47366;BME280;33105;47.964;7.982;2024-01-27T16:49:01;98362.72;;;2.75;100.00
47366;BME280;33105;47.964;7.982;2024-01-27T16:52:09;98366.59;;;2.81;100.00
47366;BME280;33105;47.964;7.982;2024-01-27T16:55:37;98367.94;;;2.85;100.00
47366;BME280;33105;47.964;7.982;2024-01-27T16:59:25;98365.56;;;2.90;100.00
47366;BME280;33105;47.964;7.982;2024-01-27T17:02:45;98364.59;;;2.74;100.00
47366;BME280;33105;47.964;7.982;2024-01-27T17:05:53;98367.31;;;2.66;100.00
47366;BME280;33105;47.964;7.982;2024-01-27T17:08:54;98361.09;;;2.66;100.00
47366;BME280;33105;47.964;7.982;2024-01-27T17:11:55;98361.25;;;2.64;100.00
47366;BME280;33105;47.964;7.982;2024-01-27T17:14:58;98365.47;;;2.67;100.00
47366;BME280;33105;47.964;7.982;2024-01-27T17:18:03;98363.09;;;2.72;100.00
47366;BME280;33105;47.964;7.982;2024-01-27T17:21:13;98364.13;;;2.63;100.00
47366;BME280;33105;47.964;7.982;2024-01-27T17:24:14;98360.59;;;2.62;100.00
47366;BME280;33105;47.964;7.982;2024-01-27T17:27:15;98363.47;;;2.61;100.00
47366;BME280;33105;47.964;7.982;2024-01-27T17:30:17;98368.19;;;2.59;100.00
47366;BME280;33105;47.964;7.982;2024-01-27T17:33:18;98373.06;;;2.55;100.00
47366;BME280;33105;47.964;7.982;2024-01-27T17:36:19;98373.91;;;2.56;100.00
47366;BME280;33105;47.964;7.982;2024-01-27T17:39:24;98378.97;;;2.51;100.00
47366;BME280;33105;47.964;7.982;2024-01-27T17:42:26;98370.53;;;2.54;100.00
47366;BME280;33105;47.964;7.982;2024-01-27T17:45:28;98374.41;;;2.59;100.00
47366;BME280;33105;47.964;7.982;2024-01-27T17:48:31;98362.63;;;2.60;100.00
47366;BME280;33105;47.964;7.982;2024-01-27T17:52:06;98366.16;;;2.61;100.00
47366;BME280;33105;47.964;7.982;2024-01-27T17:55:08;98368.69;;;2.54;100.00
47366;BME280;33105;47.964;7.982;2024-01-27T17:58:14;98366.88;;;2.47;100.00
47366;BME280;33105;47.964;7.982;2024-01-27T18:01:19;98372.09;;;2.40;100.00
47366;BME280;33105;47.964;7.982;2024-01-27T18:04:23;98364.69;;;2.42;100.00
47366;BME280;33105;47.964;7.982;2024-01-27T18:07:25;98375.47;;;2.34;100.00
47366;BME280;33105;47.964;7.982;2024-01-27T18:10:26;98375.81;;;2.31;100.00